Miller Field
KVTN : now visible

Airfield :











YOU CAN JOIN US ON...

 
LOGIN :

Register | Disclaimer

   EN    FR    IT 

 









Legend :    VFR   Marginal VFR   IFR   Intensive IFR   Very Intensive IFR
Visi :
Ceiling :
>= 8 km
>= 3000ft
5 to 8 km
1000 to 3000 ft
1500m to 5 km
500 to 1000 ft
800 to 1500m
200 to 500 ft
< 800m
< 200 ft
Symbols :   Thunderstorms  Fog  Heavy snow  Heavy precipitations  Wind > 20 kt







- Airport Elevation : 2596 ft


KVTN - Miller Field

CURRENT METAR :
  • 181052Z AUTO 27005KT 10SM CLR 13/04 A2993 RMK AO2 SLP116 T01330044

EXPIRED METARs :
  • 180952Z AUTO 23006KT 10SM CLR 12/07 A2991 RMK AO2 SLP111 T01170072
  • 180852Z AUTO 26007KT 10SM CLR 13/09 A2988 RMK AO2 SLP100 T01330094 51017

TAF KVTN
Valid from the 18 at 06:00 until the 19 at 06:00 UTC


180520Z 1806/1906 29008KT P6SM SCT150
FM181600 32009KT P6SM FEW200
FM182100 04005KT P6SM SKC
FM190000 12005KT P6SM FEW250
No reported NOTAMs for that airfield.



MET'MAP, your aeronautical weather chart ! - Copyright ORBIFLY December 2007 - Disclaimer

ORBIFLY MET'MAP TEAM :

Programming & Development : Alexandra Zaïnal
Concept & Development : Baudouin d'Aumeries
Co-Development & Prog : Marc-Olivier Méhu
Technical & hardware support : Manuel Goepfert

Contact : metmap@orbifly.com




SOURCES & CREDITS :

   NOAA       Earth
Advisory